createdAt,value
2023-03-12T00:02:24.915Z,33.55
2023-03-12T00:04:52.645Z,33.60
2023-03-12T00:07:20.055Z,33.64
2023-03-12T00:09:47.492Z,33.64
2023-03-12T00:12:15.183Z,33.73
2023-03-12T00:14:42.793Z,33.83
2023-03-12T00:17:10.215Z,33.95
2023-03-12T00:19:37.987Z,33.91
2023-03-12T00:22:05.506Z,33.91
2023-03-12T00:24:32.943Z,33.93
2023-03-12T00:27:00.671Z,33.95
2023-03-12T00:29:28.199Z,33.94
2023-03-12T00:31:55.781Z,33.95
2023-03-12T00:34:23.628Z,33.96
2023-03-12T00:36:51.109Z,33.99
2023-03-12T00:39:18.541Z,34.00
2023-03-12T00:41:46.317Z,34.08
2023-03-12T00:44:13.759Z,34.08
2023-03-12T00:46:41.248Z,34.09
2023-03-12T00:49:09.087Z,34.10
2023-03-12T00:51:36.522Z,34.07
2023-03-12T00:54:04.818Z,34.16
2023-03-12T00:56:32.588Z,34.20
2023-03-12T00:59:00.112Z,34.23
2023-03-12T01:01:27.839Z,34.19
2023-03-12T01:03:55.922Z,34.21
2023-03-12T01:06:23.419Z,34.25
2023-03-12T01:08:50.864Z,34.28
2023-03-12T01:11:19.523Z,34.38
2023-03-12T01:13:47.017Z,34.39
2023-03-12T01:16:14.494Z,34.46
2023-03-12T01:18:42.401Z,34.51
2023-03-12T01:21:09.870Z,34.55
2023-03-12T01:23:37.785Z,34.58
2023-03-12T01:26:05.486Z,34.57
2023-03-12T01:28:32.929Z,34.68
2023-03-12T01:31:07.123Z,34.75
2023-03-12T01:33:35.034Z,34.81
2023-03-12T01:36:02.550Z,34.79
2023-03-12T01:38:30.035Z,34.76
2023-03-12T01:40:57.745Z,34.81
2023-03-12T01:43:33.947Z,34.92
2023-03-12T01:46:24.184Z,34.97
2023-03-12T01:49:13.057Z,35.00
2023-03-12T01:51:57.942Z,35.10
2023-03-12T01:54:38.929Z,35.07
2023-03-12T01:57:08.714Z,35.11
2023-03-12T01:59:45.559Z,35.16
2023-03-12T02:02:14.860Z,35.11
2023-03-12T02:04:43.064Z,35.16
2023-03-12T02:07:14.583Z,35.16
2023-03-12T02:09:44.031Z,35.20
2023-03-12T02:12:11.556Z,35.21
2023-03-12T02:14:39.261Z,35.17
2023-03-12T02:17:07.000Z,35.20
2023-03-12T02:19:44.218Z,35.29
2023-03-12T02:22:11.942Z,35.32
2023-03-12T02:24:52.646Z,35.34
2023-03-12T02:27:20.431Z,35.30
2023-03-12T02:29:47.910Z,35.31
2023-03-12T02:32:20.177Z,35.35
2023-03-12T02:34:48.161Z,35.34
2023-03-12T02:37:15.694Z,35.31
2023-03-12T02:39:43.144Z,35.34
2023-03-12T02:42:10.929Z,35.36
2023-03-12T02:44:38.412Z,35.35
2023-03-12T02:47:06.141Z,35.36
2023-03-12T02:49:34.032Z,35.33
2023-03-12T02:52:01.984Z,35.32
2023-03-12T02:54:29.524Z,35.33
2023-03-12T02:56:57.573Z,35.36
2023-03-12T02:59:26.847Z,35.39
2023-03-12T03:01:58.901Z,35.38
2023-03-12T03:04:30.971Z,35.38
2023-03-12T03:06:58.485Z,35.45
2023-03-12T03:09:26.132Z,35.42
2023-03-12T03:11:54.018Z,35.45
2023-03-12T03:14:21.666Z,35.46
2023-03-12T03:16:49.553Z,35.48
2023-03-12T03:19:18.399Z,35.47
2023-03-12T03:21:45.825Z,35.53
2023-03-12T03:24:13.371Z,35.47
2023-03-12T03:26:41.111Z,35.46
2023-03-12T03:29:08.546Z,35.48
2023-03-12T03:31:36.296Z,35.48
2023-03-12T03:34:04.393Z,35.46
2023-03-12T03:36:31.819Z,35.49
2023-03-12T03:39:00.017Z,35.50
2023-03-12T03:41:28.218Z,35.51
2023-03-12T03:43:57.642Z,35.54
2023-03-12T03:46:25.525Z,35.55
2023-03-12T03:48:53.936Z,35.62
2023-03-12T03:51:21.639Z,35.62
2023-03-12T03:53:49.493Z,35.66
2023-03-12T03:56:17.247Z,35.67
2023-03-12T03:58:45.273Z,35.66
2023-03-12T04:01:13.982Z,35.68
2023-03-12T04:03:41.883Z,35.69
2023-03-12T04:06:09.419Z,35.67
2023-03-12T04:08:37.560Z,35.70
2023-03-12T04:11:09.377Z,35.69
2023-03-12T04:13:37.471Z,35.76
2023-03-12T04:16:05.807Z,35.76
2023-03-12T04:18:33.523Z,35.75
2023-03-12T04:21:01.021Z,35.77
2023-03-12T04:23:28.778Z,35.75
2023-03-12T04:25:56.496Z,35.80
2023-03-12T04:28:23.977Z,35.82
2023-03-12T04:31:01.564Z,35.80
2023-03-12T04:33:32.085Z,35.81
2023-03-12T04:36:00.264Z,35.83
2023-03-12T04:38:27.800Z,35.79
2023-03-12T04:41:00.143Z,35.82
2023-03-12T04:43:28.645Z,35.88
2023-03-12T04:45:56.445Z,35.82
2023-03-12T04:48:24.393Z,35.83
2023-03-12T04:50:52.256Z,35.90
2023-03-12T04:53:19.829Z,35.85
2023-03-12T04:55:47.854Z,35.84
2023-03-12T04:58:16.678Z,35.88
2023-03-12T05:00:44.500Z,35.85
2023-03-12T05:03:12.384Z,35.84
2023-03-12T05:05:40.198Z,35.83
2023-03-12T05:08:07.675Z,35.88
2023-03-12T05:10:35.278Z,35.87
2023-03-12T05:13:03.113Z,35.87
2023-03-12T05:15:30.665Z,35.89
2023-03-12T05:17:58.367Z,35.98
2023-03-12T05:20:26.119Z,35.91
2023-03-12T05:22:53.571Z,35.90
2023-03-12T05:25:21.009Z,35.94
2023-03-12T05:27:48.756Z,35.93
2023-03-12T05:30:16.453Z,35.95
2023-03-12T05:32:43.886Z,35.92
2023-03-12T05:35:12.019Z,35.89
2023-03-12T05:37:42.730Z,35.90
2023-03-12T05:40:11.958Z,35.93
2023-03-12T05:42:39.528Z,35.92
2023-03-12T05:45:08.281Z,35.92
2023-03-12T05:47:36.452Z,35.98
2023-03-12T05:50:04.200Z,35.96
2023-03-12T05:52:31.765Z,36.00
2023-03-12T05:54:59.495Z,35.98
2023-03-12T05:57:26.964Z,35.95
2023-03-12T05:59:54.497Z,35.95
2023-03-12T06:02:22.439Z,35.95
2023-03-12T06:04:50.300Z,35.94
2023-03-12T06:07:17.748Z,35.92
2023-03-12T06:09:45.219Z,36.00
2023-03-12T06:12:13.406Z,35.96
2023-03-12T06:14:40.924Z,35.98
2023-03-12T06:17:08.357Z,35.98
2023-03-12T06:19:36.073Z,35.97
2023-03-12T06:22:04.288Z,35.96
2023-03-12T06:24:31.743Z,36.02
2023-03-12T06:27:00.184Z,36.03
2023-03-12T06:29:27.592Z,36.09
2023-03-12T06:31:56.074Z,36.03
2023-03-12T06:34:23.825Z,36.00
2023-03-12T06:36:51.229Z,35.96
2023-03-12T06:39:18.742Z,36.00
2023-03-12T06:41:46.471Z,36.00
2023-03-12T06:44:13.889Z,35.42
2023-03-12T06:46:42.756Z,35.18
2023-03-12T06:49:11.263Z,35.22
2023-03-12T06:51:38.781Z,35.16
2023-03-12T06:54:06.234Z,35.09
2023-03-12T06:56:33.932Z,35.07
2023-03-12T06:59:01.392Z,34.99
2023-03-12T07:01:28.877Z,34.92
2023-03-12T07:03:56.604Z,34.95
2023-03-12T07:06:24.468Z,34.92
2023-03-12T07:08:52.290Z,34.98
2023-03-12T07:11:19.980Z,34.98
2023-03-12T07:13:47.536Z,34.98
2023-03-12T07:16:15.065Z,35.01
2023-03-12T07:18:42.927Z,35.06
2023-03-12T07:21:10.363Z,35.01
2023-03-12T07:23:37.798Z,34.93
2023-03-12T07:26:06.016Z,34.96
2023-03-12T07:28:33.534Z,34.88
2023-03-12T07:31:04.318Z,34.90
2023-03-12T07:33:32.396Z,34.92
2023-03-12T07:36:00.206Z,34.93
2023-03-12T07:38:27.843Z,34.93
2023-03-12T07:40:56.142Z,34.89
2023-03-12T07:43:23.934Z,34.93
2023-03-12T07:45:51.609Z,34.94
2023-03-12T07:48:20.132Z,34.95
2023-03-12T07:50:48.503Z,35.07
2023-03-12T07:53:16.147Z,35.01
2023-03-12T07:55:45.122Z,34.97
2023-03-12T07:58:13.933Z,34.95
2023-03-12T08:00:41.513Z,34.88
2023-03-12T08:03:09.645Z,34.79
2023-03-12T08:05:37.279Z,34.12
2023-03-12T08:08:04.720Z,31.65
2023-03-12T08:10:32.600Z,33.07
2023-03-12T08:13:00.142Z,33.66
2023-03-12T08:15:27.614Z,33.80
2023-03-12T08:17:55.360Z,33.76
2023-03-12T08:20:22.790Z,33.87
2023-03-12T08:22:50.634Z,33.87
2023-03-12T08:25:21.051Z,33.88
2023-03-12T08:27:48.337Z,33.92
2023-03-12T08:30:15.798Z,33.77
2023-03-12T08:32:43.614Z,33.93
2023-03-12T08:35:11.039Z,33.98
2023-03-12T08:37:38.442Z,34.00
2023-03-12T08:40:13.387Z,34.00
2023-03-12T08:42:41.663Z,33.98
2023-03-12T08:45:10.900Z,33.87
2023-03-12T08:47:41.685Z,33.86
2023-03-12T08:50:11.281Z,33.87
2023-03-12T08:52:38.903Z,33.85
2023-03-12T08:55:06.631Z,33.82
2023-03-12T08:57:34.394Z,33.81
2023-03-12T09:00:01.930Z,33.75
2023-03-12T09:02:29.531Z,33.70
2023-03-12T09:04:57.240Z,33.70
2023-03-12T09:07:24.691Z,33.66
2023-03-12T09:09:52.217Z,33.62
2023-03-12T09:12:19.955Z,33.53
2023-03-12T09:15:02.914Z,33.56
2023-03-12T09:17:31.432Z,33.49
2023-03-12T09:19:58.922Z,33.32
2023-03-12T09:22:26.387Z,33.19
2023-03-12T09:24:54.893Z,33.09
2023-03-12T09:27:22.381Z,33.06
2023-03-12T09:30:00.284Z,33.01
2023-03-12T09:32:28.942Z,32.91
2023-03-12T09:34:56.537Z,32.85
2023-03-12T09:37:24.550Z,32.67
2023-03-12T09:39:52.684Z,32.57
2023-03-12T09:42:31.083Z,32.34
2023-03-12T09:45:00.222Z,32.31
2023-03-12T09:47:32.078Z,32.40
2023-03-12T09:50:18.663Z,32.34
2023-03-12T09:53:05.519Z,32.25
2023-03-12T09:55:37.064Z,32.25
2023-03-12T09:58:04.561Z,32.19
2023-03-12T10:00:34.610Z,32.07
2023-03-12T10:03:17.546Z,32.04
2023-03-12T10:06:16.326Z,32.12
2023-03-12T10:08:59.164Z,32.12
2023-03-12T10:11:29.529Z,32.04
2023-03-12T10:14:00.256Z,32.31
2023-03-12T10:16:56.827Z,32.57
2023-03-12T10:19:51.880Z,32.79
2023-03-12T10:22:32.045Z,32.86
2023-03-12T10:25:24.942Z,33.03
2023-03-12T10:27:52.400Z,33.07
2023-03-12T10:30:23.849Z,33.20
2023-03-12T10:32:57.418Z,33.30
2023-03-12T10:35:26.737Z,33.38
2023-03-12T10:38:04.234Z,33.41
2023-03-12T10:40:35.951Z,33.47
2023-03-12T10:43:04.200Z,33.55
2023-03-12T10:45:40.934Z,33.58
2023-03-12T10:48:09.961Z,33.63
2023-03-12T10:50:38.608Z,33.72
2023-03-12T10:53:29.805Z,33.73
2023-03-12T10:56:01.326Z,33.75
2023-03-12T10:58:41.000Z,33.93
2023-03-12T11:01:24.009Z,34.00
2023-03-12T11:03:51.966Z,34.09
2023-03-12T11:06:29.834Z,34.09
2023-03-12T11:09:16.805Z,34.07
2023-03-12T11:11:47.483Z,34.05
2023-03-12T11:14:24.933Z,34.06
2023-03-12T11:16:53.106Z,34.06
2023-03-12T11:19:31.159Z,34.07
2023-03-12T11:22:03.290Z,34.10
2023-03-12T11:24:30.844Z,34.15
2023-03-12T11:27:14.430Z,34.28
2023-03-12T11:29:47.120Z,34.28
2023-03-12T11:32:23.745Z,34.69
2023-03-12T11:34:52.698Z,34.68
2023-03-12T11:37:26.066Z,34.70
2023-03-12T11:40:31.012Z,34.75
2023-03-12T11:43:43.739Z,34.74
2023-03-12T11:46:33.472Z,34.51
2023-03-12T11:49:16.108Z,34.65
2023-03-12T11:51:50.901Z,34.97
2023-03-12T11:54:29.800Z,35.07
2023-03-12T11:57:19.862Z,35.00
2023-03-12T12:00:12.164Z,34.81
2023-03-12T12:03:17.543Z,34.70
2023-03-12T12:06:00.589Z,34.60
2023-03-12T12:08:47.559Z,34.51
2023-03-12T12:11:19.998Z,34.42
2023-03-12T12:13:56.801Z,34.42
2023-03-12T12:16:32.781Z,34.40
2023-03-12T12:19:28.276Z,34.42
2023-03-12T12:22:07.707Z,34.43
2023-03-12T12:24:44.560Z,34.43
2023-03-12T12:27:33.264Z,34.40
2023-03-12T12:30:07.085Z,34.37
2023-03-12T12:32:44.294Z,34.36
2023-03-12T12:35:20.045Z,34.27
2023-03-12T12:37:52.903Z,34.26
2023-03-12T12:40:39.831Z,34.23
2023-03-12T12:43:28.076Z,34.22
2023-03-12T12:45:58.373Z,34.25
2023-03-12T12:48:45.996Z,34.28
2023-03-12T12:51:13.742Z,34.30
2023-03-12T12:54:26.131Z,34.36
2023-03-12T12:57:14.729Z,34.45
2023-03-12T12:59:45.262Z,34.50
2023-03-12T13:02:17.278Z,34.62
2023-03-12T13:04:44.750Z,34.67
2023-03-12T13:07:12.223Z,34.64
2023-03-12T13:09:43.428Z,34.66
2023-03-12T13:12:20.318Z,34.69
2023-03-12T13:14:48.809Z,34.70
2023-03-12T13:17:27.441Z,34.78
2023-03-12T13:20:20.790Z,34.81
2023-03-12T13:23:05.673Z,34.78
2023-03-12T13:26:00.559Z,34.80
2023-03-12T13:28:32.393Z,34.84
2023-03-12T13:31:08.174Z,34.64
2023-03-12T13:33:48.164Z,34.55
2023-03-12T13:36:24.280Z,34.42
2023-03-12T13:38:56.371Z,34.28
2023-03-12T13:41:41.314Z,34.48
2023-03-12T13:44:23.798Z,34.53
2023-03-12T13:47:03.540Z,34.58
2023-03-12T13:49:42.188Z,34.62
2023-03-12T13:52:25.073Z,34.59
2023-03-12T13:55:08.474Z,34.53
2023-03-12T13:57:41.852Z,34.51
2023-03-12T14:00:43.843Z,34.52
2023-03-12T14:03:35.582Z,34.42
2023-03-12T14:06:20.311Z,34.32
2023-03-12T14:08:55.123Z,34.26
2023-03-12T14:11:33.461Z,34.27
2023-03-12T14:14:24.894Z,34.27
2023-03-12T14:17:02.710Z,34.28
2023-03-12T14:19:31.496Z,34.26
2023-03-12T14:22:02.007Z,34.23
2023-03-12T14:24:34.888Z,34.17
2023-03-12T14:27:03.116Z,34.15
2023-03-12T14:30:05.556Z,34.11
2023-03-12T14:32:33.040Z,34.08
2023-03-12T14:35:20.689Z,34.26
2023-03-12T14:38:05.392Z,34.34
2023-03-12T14:40:40.087Z,34.40
2023-03-12T14:43:24.567Z,34.47
2023-03-12T14:46:03.161Z,34.55
2023-03-12T14:48:35.861Z,34.62
2023-03-12T14:51:05.861Z,34.72
2023-03-12T14:53:35.523Z,34.65
2023-03-12T14:56:12.555Z,34.58
2023-03-12T14:58:45.238Z,34.54
2023-03-12T15:01:15.533Z,34.51
2023-03-12T15:03:47.281Z,34.47
2023-03-12T15:06:31.367Z,34.39
2023-03-12T15:09:00.402Z,34.30
2023-03-12T15:11:28.959Z,34.33
2023-03-12T15:13:56.656Z,34.28
2023-03-12T15:16:25.016Z,34.29
2023-03-12T15:18:54.556Z,34.36
2023-03-12T15:21:22.324Z,34.32
2023-03-12T15:23:51.029Z,34.26
2023-03-12T15:26:22.561Z,34.29
2023-03-12T15:29:04.047Z,34.32
2023-03-12T15:31:49.029Z,34.26
2023-03-12T15:34:39.302Z,34.21
2023-03-12T15:37:41.552Z,34.15
2023-03-12T15:40:26.814Z,34.11
2023-03-12T15:42:57.559Z,33.96
2023-03-12T15:45:37.342Z,33.99
2023-03-12T15:48:33.874Z,33.96
2023-03-12T15:51:02.128Z,33.89
2023-03-12T15:53:32.445Z,33.99
2023-03-12T15:56:04.831Z,34.10
2023-03-12T15:58:35.401Z,34.21
2023-03-12T16:01:07.298Z,34.30
2023-03-12T16:03:35.496Z,34.31
2023-03-12T16:06:03.252Z,34.40
2023-03-12T16:08:51.251Z,34.53
2023-03-12T16:11:22.021Z,34.56
2023-03-12T16:13:53.487Z,34.62
2023-03-12T16:16:22.271Z,34.56
2023-03-12T16:18:50.961Z,34.48
2023-03-12T16:21:19.380Z,34.47
2023-03-12T16:23:47.979Z,34.48
2023-03-12T16:26:15.948Z,34.55
2023-03-12T16:28:43.691Z,34.69
2023-03-12T16:31:14.155Z,34.71
2023-03-12T16:33:42.958Z,34.73
2023-03-12T16:36:16.069Z,34.86
2023-03-12T16:38:44.240Z,34.66
2023-03-12T16:41:15.764Z,34.43
2023-03-12T16:43:47.405Z,34.54
2023-03-12T16:46:18.882Z,34.59
2023-03-12T16:48:50.238Z,34.39
2023-03-12T16:51:19.927Z,34.21
2023-03-12T16:53:58.473Z,34.07
2023-03-12T16:56:34.190Z,33.84
2023-03-12T16:59:13.785Z,33.61
2023-03-12T17:01:42.458Z,33.52
2023-03-12T17:04:11.930Z,33.23
2023-03-12T17:06:40.959Z,33.17
2023-03-12T17:09:09.690Z,32.94
2023-03-12T17:11:39.812Z,32.75
2023-03-12T17:14:19.103Z,32.68
2023-03-12T17:16:49.420Z,32.42
2023-03-12T17:19:18.735Z,32.27
2023-03-12T17:21:48.034Z,32.03
2023-03-12T17:24:17.058Z,31.97
2023-03-12T17:26:49.292Z,31.76
2023-03-12T17:29:18.801Z,31.82
2023-03-12T17:31:48.144Z,31.86
2023-03-12T17:34:18.150Z,31.60
2023-03-12T17:36:47.540Z,31.46
2023-03-12T17:39:16.661Z,31.40
2023-03-12T17:41:45.341Z,31.18
2023-03-12T17:44:16.498Z,30.99
2023-03-12T17:46:58.435Z,30.88
2023-03-12T17:49:29.499Z,30.80
2023-03-12T17:51:58.239Z,30.69
2023-03-12T17:54:26.937Z,30.69
2023-03-12T17:56:56.006Z,30.67
2023-03-12T17:59:24.347Z,30.52
2023-03-12T18:01:53.465Z,30.45
2023-03-12T18:04:22.158Z,30.59
2023-03-12T18:06:51.743Z,30.41
2023-03-12T18:09:19.927Z,30.38
2023-03-12T18:11:48.503Z,30.45
2023-03-12T18:14:18.023Z,30.56
2023-03-12T18:16:46.422Z,30.63
2023-03-12T18:19:15.681Z,30.71
2023-03-12T18:21:45.640Z,30.80
2023-03-12T18:24:14.860Z,30.92
2023-03-12T18:26:45.362Z,30.85
2023-03-12T18:29:14.132Z,31.04
2023-03-12T18:31:42.972Z,31.15
2023-03-12T18:34:13.413Z,31.27
2023-03-12T18:36:41.831Z,31.38
2023-03-12T18:39:10.640Z,31.50
2023-03-12T18:41:42.145Z,31.58
2023-03-12T18:44:11.391Z,31.66
2023-03-12T18:46:41.056Z,31.75
2023-03-12T18:49:09.543Z,31.91
2023-03-12T18:51:38.223Z,32.13
2023-03-12T18:54:08.310Z,32.30
2023-03-12T18:56:39.829Z,32.40
2023-03-12T18:59:10.481Z,32.36
2023-03-12T19:01:38.920Z,32.27
2023-03-12T19:04:07.344Z,32.22
2023-03-12T19:06:49.750Z,32.17
2023-03-12T19:09:19.653Z,31.82
2023-03-12T19:11:50.368Z,31.72
2023-03-12T19:14:20.258Z,31.62
2023-03-12T19:16:49.417Z,31.46
2023-03-12T19:19:17.846Z,31.22
2023-03-12T19:21:50.437Z,31.34
2023-03-12T19:24:20.490Z,31.29
2023-03-12T19:26:49.295Z,31.33
2023-03-12T19:29:19.711Z,31.26
2023-03-12T19:31:50.509Z,31.18
2023-03-12T19:34:20.446Z,31.20
2023-03-12T19:36:51.100Z,31.13
2023-03-12T19:39:21.431Z,31.08
2023-03-12T19:41:52.006Z,31.05
2023-03-12T19:44:20.870Z,31.00
2023-03-12T19:46:51.213Z,30.83
2023-03-12T19:49:20.213Z,30.96
2023-03-12T19:51:49.293Z,31.00
2023-03-12T19:54:18.761Z,31.07
2023-03-12T19:56:47.722Z,30.93
2023-03-12T19:59:17.005Z,31.02
2023-03-12T20:01:49.577Z,31.21
2023-03-12T20:04:18.149Z,31.25
2023-03-12T20:06:48.831Z,31.25
2023-03-12T20:09:18.052Z,31.24
2023-03-12T20:11:46.790Z,31.09
2023-03-12T20:14:16.943Z,31.24
2023-03-12T20:16:47.865Z,31.37
2023-03-12T20:19:18.708Z,31.40
2023-03-12T20:21:49.200Z,31.42
2023-03-12T20:24:18.483Z,31.46
2023-03-12T20:26:48.380Z,31.46
2023-03-12T20:29:18.625Z,31.51
2023-03-12T20:31:46.887Z,31.55
2023-03-12T20:34:16.241Z,31.64
2023-03-12T20:36:45.695Z,31.67
2023-03-12T20:39:15.380Z,31.76
2023-03-12T20:41:44.362Z,31.75
2023-03-12T20:44:12.874Z,31.94
2023-03-12T20:46:41.573Z,31.96
2023-03-12T20:49:09.737Z,32.07
2023-03-12T20:51:39.788Z,32.15
2023-03-12T20:54:09.677Z,32.28
2023-03-12T20:56:41.936Z,32.32
2023-03-12T20:59:17.437Z,32.50
2023-03-12T21:01:46.441Z,32.53
2023-03-12T21:04:16.612Z,32.65
2023-03-12T21:06:46.102Z,32.75
2023-03-12T21:09:15.699Z,32.74
2023-03-12T21:11:43.971Z,32.76
2023-03-12T21:14:12.911Z,31.43
2023-03-12T21:16:41.729Z,31.04
2023-03-12T21:19:10.061Z,30.70
2023-03-12T21:21:38.054Z,31.40
2023-03-12T21:24:06.091Z,32.09
2023-03-12T21:26:33.713Z,32.21
2023-03-12T21:29:02.434Z,32.22
2023-03-12T21:31:32.765Z,32.22
2023-03-12T21:34:00.526Z,32.21
2023-03-12T21:36:30.483Z,32.36
2023-03-12T21:39:00.701Z,32.40
2023-03-12T21:41:30.041Z,32.54
2023-03-12T21:44:01.044Z,32.61
2023-03-12T21:46:30.065Z,32.66
2023-03-12T21:48:58.805Z,32.83
2023-03-12T21:51:26.402Z,32.86
2023-03-12T21:53:57.181Z,32.98
2023-03-12T21:56:28.932Z,33.08
2023-03-12T21:58:57.330Z,33.23
2023-03-12T22:01:25.263Z,33.30
2023-03-12T22:03:53.044Z,33.33
2023-03-12T22:06:20.482Z,33.39
2023-03-12T22:08:52.251Z,33.51
2023-03-12T22:11:19.992Z,33.73
2023-03-12T22:13:47.664Z,33.74
2023-03-12T22:16:15.356Z,33.70
2023-03-12T22:18:44.407Z,33.72
2023-03-12T22:21:16.790Z,33.83
2023-03-12T22:23:44.620Z,33.87
2023-03-12T22:26:12.026Z,33.92
2023-03-12T22:28:39.642Z,34.01
2023-03-12T22:31:07.978Z,33.99
2023-03-12T22:33:36.367Z,34.04
2023-03-12T22:36:07.770Z,34.10
2023-03-12T22:38:36.630Z,34.21
2023-03-12T22:41:19.365Z,34.24
2023-03-12T22:43:47.496Z,34.27
2023-03-12T22:46:16.591Z,34.30
2023-03-12T22:48:44.856Z,34.43
2023-03-12T22:51:12.623Z,34.44
2023-03-12T22:53:40.064Z,34.44
2023-03-12T22:56:09.287Z,34.56
2023-03-12T22:58:37.120Z,34.70
2023-03-12T23:01:05.807Z,34.71
2023-03-12T23:03:33.565Z,34.76
2023-03-12T23:06:01.310Z,34.79
2023-03-12T23:08:28.908Z,34.68
2023-03-12T23:10:58.051Z,34.70
2023-03-12T23:13:25.977Z,34.75
2023-03-12T23:15:53.415Z,34.76
2023-03-12T23:18:21.041Z,34.79
2023-03-12T23:20:48.799Z,34.74
2023-03-12T23:23:16.235Z,34.78
2023-03-12T23:25:43.676Z,34.87
2023-03-12T23:28:11.366Z,34.88
2023-03-12T23:30:38.810Z,34.92
2023-03-12T23:33:06.234Z,34.87
2023-03-12T23:35:33.991Z,34.89
2023-03-12T23:38:01.443Z,34.98
2023-03-12T23:40:28.838Z,35.00
2023-03-12T23:42:56.553Z,34.94
2023-03-12T23:45:24.046Z,34.97
2023-03-12T23:47:51.643Z,35.03
2023-03-12T23:50:19.343Z,35.07
2023-03-12T23:52:46.893Z,35.07
2023-03-12T23:55:14.318Z,35.18
2023-03-12T23:57:42.006Z,35.32
